createdAt,value
2023-01-17T00:00:34.860Z,73.33
2023-01-17T00:03:01.776Z,73.59
2023-01-17T00:05:47.066Z,73.43
2023-01-17T00:08:32.483Z,73.53
2023-01-17T00:10:59.300Z,73.60
2023-01-17T00:13:25.997Z,73.69
2023-01-17T00:15:53.098Z,73.37
2023-01-17T00:18:19.854Z,73.19
2023-01-17T00:21:05.326Z,72.64
2023-01-17T00:23:50.567Z,71.84
2023-01-17T00:26:19.086Z,72.53
2023-01-17T00:28:47.840Z,72.22
2023-01-17T00:31:15.460Z,72.83
2023-01-17T00:33:42.317Z,71.98
2023-01-17T00:36:09.661Z,72.30
2023-01-17T00:38:38.041Z,72.59
2023-01-17T00:41:09.387Z,72.29
2023-01-17T00:43:55.235Z,71.54
2023-01-17T00:46:40.868Z,71.79
2023-01-17T00:49:26.313Z,72.05
2023-01-17T00:52:11.838Z,71.68
2023-01-17T00:54:57.445Z,72.01
2023-01-17T00:57:43.095Z,72.11
2023-01-17T01:00:29.025Z,72.21
2023-01-17T01:03:14.611Z,71.82
2023-01-17T01:05:59.899Z,71.69
2023-01-17T01:08:47.221Z,71.79
2023-01-17T01:11:35.265Z,71.63
2023-01-17T01:14:20.500Z,71.86
2023-01-17T01:17:05.746Z,72.26
2023-01-17T01:19:51.328Z,72.12
2023-01-17T01:22:36.817Z,72.55
2023-01-17T01:25:22.565Z,72.51
2023-01-17T01:28:08.241Z,73.04
2023-01-17T01:30:53.439Z,72.79
2023-01-17T01:33:20.163Z,72.66
2023-01-17T01:35:51.899Z,71.90
2023-01-17T01:38:20.216Z,72.43
2023-01-17T01:40:49.172Z,72.62
2023-01-17T01:43:18.341Z,72.94
2023-01-17T01:45:48.578Z,72.36
2023-01-17T01:48:20.495Z,72.24
2023-01-17T01:50:48.731Z,71.84
2023-01-17T01:53:16.001Z,71.75
2023-01-17T01:55:43.244Z,71.81
2023-01-17T01:58:24.381Z,71.04
2023-01-17T02:00:51.319Z,72.38
2023-01-17T02:03:22.167Z,72.17
2023-01-17T02:05:48.819Z,72.81
2023-01-17T02:08:17.631Z,72.25
2023-01-17T02:10:44.595Z,71.94
2023-01-17T02:13:13.016Z,71.67
2023-01-17T02:16:17.222Z,70.74
2023-01-17T02:18:53.879Z,71.02
2023-01-17T02:21:32.085Z,71.78
2023-01-17T02:24:17.323Z,70.76
2023-01-17T02:26:58.590Z,70.85
2023-01-17T02:29:46.626Z,71.31
2023-01-17T02:32:40.236Z,71.75
2023-01-17T02:35:28.219Z,72.53
2023-01-17T02:38:25.281Z,71.85
2023-01-17T02:41:07.699Z,72.45
2023-01-17T02:43:35.923Z,72.87
2023-01-17T02:46:02.835Z,72.94
2023-01-17T02:48:32.131Z,71.55
2023-01-17T02:51:10.585Z,71.80
2023-01-17T02:54:00.260Z,71.91
2023-01-17T02:57:10.739Z,73.24
2023-01-17T02:59:45.828Z,73.10
2023-01-17T03:02:38.351Z,72.93
2023-01-17T03:05:22.475Z,72.73
2023-01-17T03:07:50.502Z,73.17
2023-01-17T03:10:18.492Z,72.39
2023-01-17T03:12:45.311Z,73.28
2023-01-17T03:15:17.420Z,73.07
2023-01-17T03:17:49.942Z,73.08
2023-01-17T03:20:16.888Z,73.64
2023-01-17T03:22:43.535Z,73.58
2023-01-17T03:25:10.478Z,73.39
2023-01-17T03:27:37.181Z,73.61
2023-01-17T03:30:04.809Z,72.60
2023-01-17T03:32:31.508Z,73.47
2023-01-17T03:34:58.234Z,74.01
2023-01-17T03:37:24.956Z,74.02
2023-01-17T03:39:51.640Z,74.32
2023-01-17T03:42:18.389Z,74.72
2023-01-17T03:44:45.055Z,74.85
2023-01-17T03:47:12.282Z,75.15
2023-01-17T03:49:39.834Z,74.69
2023-01-17T03:52:07.176Z,75.06
2023-01-17T03:54:33.882Z,74.59
2023-01-17T03:57:00.695Z,74.49
2023-01-17T03:59:27.484Z,74.24
2023-01-17T04:01:54.227Z,74.12
2023-01-17T04:04:21.002Z,73.55
2023-01-17T04:06:48.073Z,74.08
2023-01-17T04:09:14.808Z,74.93
2023-01-17T04:11:41.531Z,75.59
2023-01-17T04:14:08.261Z,76.16
2023-01-17T04:16:35.465Z,77.25
2023-01-17T04:19:02.216Z,77.90
2023-01-17T04:21:28.850Z,78.26
2023-01-17T04:23:55.474Z,77.87
2023-01-17T04:26:22.137Z,78.51
2023-01-17T04:28:49.367Z,77.93
2023-01-17T04:31:17.017Z,78.52
2023-01-17T04:33:49.655Z,78.42
2023-01-17T04:36:16.319Z,77.96
2023-01-17T04:38:42.956Z,78.53
2023-01-17T04:41:09.726Z,78.88
2023-01-17T04:43:36.597Z,78.23
2023-01-17T04:46:04.965Z,78.79
2023-01-17T04:48:31.726Z,79.37
2023-01-17T04:51:02.502Z,79.66
2023-01-17T04:53:29.325Z,79.59
2023-01-17T04:55:56.027Z,79.97
2023-01-17T04:58:22.805Z,79.60
2023-01-17T05:00:51.047Z,79.81
2023-01-17T05:03:18.995Z,79.62
2023-01-17T05:05:46.032Z,79.32
2023-01-17T05:08:15.922Z,80.23
2023-01-17T05:10:42.612Z,79.89
2023-01-17T05:13:09.313Z,79.81
2023-01-17T05:15:36.362Z,80.11
2023-01-17T05:18:07.236Z,79.74
2023-01-17T05:20:34.900Z,79.60
2023-01-17T05:23:01.596Z,79.29
2023-01-17T05:25:29.884Z,79.45
2023-01-17T05:27:57.313Z,79.62
2023-01-17T05:30:24.003Z,79.32
2023-01-17T05:32:52.343Z,79.69
2023-01-17T05:35:20.538Z,79.51
2023-01-17T05:37:49.209Z,78.96
2023-01-17T05:40:16.738Z,79.44
2023-01-17T05:42:47.304Z,79.41
2023-01-17T05:45:16.895Z,78.93
2023-01-17T05:47:44.746Z,79.17
2023-01-17T05:50:12.950Z,79.52
2023-01-17T05:52:40.108Z,79.61
2023-01-17T05:55:07.490Z,78.85
2023-01-17T05:57:35.045Z,78.95
2023-01-17T06:00:01.871Z,79.07
2023-01-17T06:02:31.611Z,79.78
2023-01-17T06:04:58.279Z,79.45
2023-01-17T06:07:24.960Z,79.50
2023-01-17T06:09:51.704Z,79.32
2023-01-17T06:12:22.146Z,79.49
2023-01-17T06:14:48.860Z,79.68
2023-01-17T06:17:15.535Z,79.27
2023-01-17T06:19:42.208Z,79.42
2023-01-17T06:22:09.044Z,79.76
2023-01-17T06:24:35.817Z,79.75
2023-01-17T06:27:02.523Z,79.81
2023-01-17T06:29:29.217Z,79.89
2023-01-17T06:31:55.923Z,79.70
2023-01-17T06:34:22.655Z,79.83
2023-01-17T06:36:49.343Z,79.47
2023-01-17T06:39:16.007Z,78.96
2023-01-17T06:41:43.090Z,78.81
2023-01-17T06:44:10.107Z,78.96
2023-01-17T06:46:36.960Z,78.87
2023-01-17T06:49:03.716Z,78.93
2023-01-17T06:51:30.391Z,78.72
2023-01-17T06:53:57.196Z,79.01
2023-01-17T06:56:23.946Z,79.23
2023-01-17T06:58:51.384Z,79.34
2023-01-17T07:01:18.809Z,79.63
2023-01-17T07:03:45.585Z,79.71
2023-01-17T07:06:12.399Z,79.51
2023-01-17T07:08:39.047Z,79.50
2023-01-17T07:11:10.261Z,79.48
2023-01-17T07:13:38.100Z,79.74
2023-01-17T07:16:06.318Z,79.56
2023-01-17T07:18:34.065Z,79.72
2023-01-17T07:21:00.827Z,79.67
2023-01-17T07:23:27.507Z,79.67
2023-01-17T07:25:58.946Z,79.59
2023-01-17T07:28:26.971Z,79.23
2023-01-17T07:30:54.202Z,79.24
2023-01-17T07:33:21.158Z,79.53
2023-01-17T07:35:47.906Z,79.47
2023-01-17T07:38:16.793Z,79.05
2023-01-17T07:40:44.192Z,78.92
2023-01-17T07:43:14.218Z,79.45
2023-01-17T07:45:46.562Z,79.97
2023-01-17T07:48:13.360Z,79.55
2023-01-17T07:50:40.251Z,79.50
2023-01-17T07:53:06.927Z,80.10
2023-01-17T07:55:33.693Z,80.83
2023-01-17T07:58:02.782Z,81.43
2023-01-17T08:00:29.894Z,80.87
2023-01-17T08:03:01.095Z,80.75
2023-01-17T08:05:28.433Z,80.53
2023-01-17T08:07:55.102Z,80.44
2023-01-17T08:10:22.817Z,79.95
2023-01-17T08:12:50.191Z,79.90
2023-01-17T08:15:17.953Z,80.15
2023-01-17T08:17:48.374Z,80.65
2023-01-17T08:20:16.277Z,80.47
2023-01-17T08:22:43.049Z,80.35
2023-01-17T08:25:09.836Z,80.06
2023-01-17T08:27:36.622Z,80.19
2023-01-17T08:30:03.907Z,80.33
2023-01-17T08:32:30.738Z,79.83
2023-01-17T08:34:57.419Z,79.22
2023-01-17T08:37:24.395Z,79.91
2023-01-17T08:39:51.129Z,80.01
2023-01-17T08:42:17.833Z,80.16
2023-01-17T08:44:44.585Z,80.87
2023-01-17T08:47:11.300Z,81.67
2023-01-17T08:49:37.992Z,81.83
2023-01-17T08:52:07.367Z,81.68
2023-01-17T08:54:34.068Z,81.52
2023-01-17T08:57:03.261Z,80.95
2023-01-17T08:59:30.002Z,81.36
2023-01-17T09:01:58.232Z,81.50
2023-01-17T09:04:25.187Z,80.96
2023-01-17T09:06:51.969Z,81.61
2023-01-17T09:09:18.742Z,82.46
2023-01-17T09:11:45.627Z,82.33
2023-01-17T09:14:13.129Z,82.24
2023-01-17T09:16:39.921Z,81.67
2023-01-17T09:19:06.719Z,81.17
2023-01-17T09:21:33.526Z,81.12
2023-01-17T09:24:00.341Z,81.58
2023-01-17T09:26:29.428Z,81.96
2023-01-17T09:28:56.263Z,82.38
2023-01-17T09:31:24.461Z,81.77
2023-01-17T09:33:51.860Z,81.38
2023-01-17T09:36:18.780Z,81.33
2023-01-17T09:38:45.823Z,81.47
2023-01-17T09:41:21.990Z,82.03
2023-01-17T09:44:18.032Z,82.96
2023-01-17T09:46:46.493Z,82.33
2023-01-17T09:49:35.776Z,82.59
2023-01-17T09:52:03.630Z,82.19
2023-01-17T09:54:41.441Z,81.67
2023-01-17T09:57:54.228Z,82.76
2023-01-17T10:00:39.283Z,81.51
2023-01-17T10:03:39.945Z,81.50
2023-01-17T10:06:17.444Z,81.37
2023-01-17T10:08:50.138Z,81.39
2023-01-17T10:11:29.189Z,81.66
2023-01-17T10:14:32.985Z,81.66
2023-01-17T10:17:08.656Z,80.71
2023-01-17T10:20:04.328Z,80.36
2023-01-17T10:22:31.165Z,80.76
2023-01-17T10:25:33.622Z,81.08
2023-01-17T10:28:05.075Z,81.03
2023-01-17T10:31:00.898Z,81.45
2023-01-17T10:33:30.198Z,80.49
2023-01-17T10:35:59.140Z,80.91
2023-01-17T10:38:30.300Z,80.11
2023-01-17T10:41:00.116Z,79.64
2023-01-17T10:43:39.375Z,79.71
2023-01-17T10:46:12.523Z,79.99
2023-01-17T10:48:45.882Z,80.40
2023-01-17T10:51:35.140Z,80.03
2023-01-17T10:54:12.368Z,79.88
2023-01-17T10:56:40.677Z,79.98
2023-01-17T10:59:19.021Z,79.99
2023-01-17T11:01:45.971Z,80.27
2023-01-17T11:04:22.033Z,80.00
2023-01-17T11:07:20.378Z,80.35
2023-01-17T11:09:52.248Z,80.02
2023-01-17T11:12:29.280Z,78.86
2023-01-17T11:15:01.839Z,79.35
2023-01-17T11:17:29.390Z,79.33
2023-01-17T11:20:20.188Z,80.15
2023-01-17T11:23:02.738Z,79.88
2023-01-17T11:25:32.952Z,79.78
2023-01-17T11:28:25.996Z,80.57
2023-01-17T11:30:55.524Z,80.52
2023-01-17T11:33:53.859Z,80.53
2023-01-17T11:36:28.793Z,80.46
2023-01-17T11:38:58.849Z,80.20
2023-01-17T11:41:28.142Z,80.90
2023-01-17T11:43:57.513Z,80.52
2023-01-17T11:46:25.029Z,80.86
2023-01-17T11:48:59.635Z,80.29
2023-01-17T11:51:30.190Z,80.19
2023-01-17T11:54:08.854Z,78.81
2023-01-17T11:56:36.751Z,79.29
2023-01-17T11:59:21.688Z,78.88
2023-01-17T12:01:58.017Z,78.55
2023-01-17T12:04:31.720Z,78.02
2023-01-17T12:07:19.657Z,75.91
2023-01-17T12:09:49.032Z,76.33
2023-01-17T12:13:11.187Z,73.15
2023-01-17T12:15:55.924Z,71.41
2023-01-17T12:18:32.269Z,72.61
2023-01-17T12:21:10.541Z,71.77
2023-01-17T12:23:51.732Z,71.13
2023-01-17T12:26:37.115Z,72.03
2023-01-17T12:29:37.111Z,72.34
2023-01-17T12:32:12.462Z,72.48
2023-01-17T12:34:47.083Z,72.86
2023-01-17T12:37:24.511Z,72.22
2023-01-17T12:39:57.277Z,71.50
2023-01-17T12:42:33.180Z,71.52
2023-01-17T12:45:08.043Z,72.89
2023-01-17T12:47:38.810Z,72.99
2023-01-17T12:50:15.437Z,71.75
2023-01-17T12:52:44.760Z,71.87
2023-01-17T12:55:22.369Z,71.00
2023-01-17T12:57:57.082Z,71.85
2023-01-17T13:00:26.728Z,71.35
2023-01-17T13:02:58.934Z,72.28
2023-01-17T13:05:32.461Z,71.45
2023-01-17T13:08:06.827Z,72.19
2023-01-17T13:10:39.678Z,71.72
2023-01-17T13:13:20.068Z,70.81
2023-01-17T13:15:49.258Z,71.08
2023-01-17T13:18:22.804Z,70.32
2023-01-17T13:21:06.025Z,68.87
2023-01-17T13:23:59.037Z,69.18
2023-01-17T13:26:47.573Z,70.86
2023-01-17T13:29:32.550Z,70.46
2023-01-17T13:32:27.589Z,69.36
2023-01-17T13:35:22.983Z,68.51
2023-01-17T13:38:04.383Z,68.89
2023-01-17T13:40:34.904Z,68.56
2023-01-17T13:43:05.637Z,68.52
2023-01-17T13:45:36.982Z,67.83
2023-01-17T13:48:12.782Z,66.47
2023-01-17T13:50:50.892Z,66.59
2023-01-17T13:53:35.630Z,65.74
2023-01-17T13:56:12.573Z,62.06
2023-01-17T13:58:50.488Z,62.03
2023-01-17T14:01:23.518Z,61.52
2023-01-17T14:03:50.361Z,61.74
2023-01-17T14:06:35.825Z,62.13
2023-01-17T14:09:13.386Z,62.72
2023-01-17T14:11:52.071Z,60.75
2023-01-17T14:14:36.932Z,59.87
2023-01-17T14:17:44.957Z,61.04
2023-01-17T14:20:12.498Z,62.67
2023-01-17T14:22:41.616Z,61.63
2023-01-17T14:25:18.498Z,62.82
2023-01-17T14:27:48.300Z,62.03
2023-01-17T14:30:18.038Z,62.35
2023-01-17T14:33:05.900Z,61.08
2023-01-17T14:35:36.864Z,63.42
2023-01-17T14:38:18.773Z,62.17
2023-01-17T14:40:51.149Z,62.53
2023-01-17T14:43:25.891Z,63.04
2023-01-17T14:46:00.480Z,63.05
2023-01-17T14:48:28.295Z,63.22
2023-01-17T14:50:57.400Z,63.93
2023-01-17T14:53:29.006Z,63.18
2023-01-17T14:56:01.675Z,64.02
2023-01-17T14:58:30.776Z,63.65
2023-01-17T15:01:00.324Z,64.44
2023-01-17T15:03:28.066Z,63.61
2023-01-17T15:05:55.541Z,63.92
2023-01-17T15:08:24.988Z,64.05
2023-01-17T15:10:58.612Z,63.65
2023-01-17T15:13:43.862Z,63.61
2023-01-17T15:16:29.639Z,62.64
2023-01-17T15:18:57.297Z,64.09
2023-01-17T15:21:29.876Z,63.85
2023-01-17T15:23:58.286Z,64.01
2023-01-17T15:26:27.332Z,64.29
2023-01-17T15:29:04.626Z,64.48
2023-01-17T15:31:41.342Z,63.80
2023-01-17T15:34:13.909Z,64.26
2023-01-17T15:36:40.797Z,64.28
2023-01-17T15:39:22.183Z,63.72
2023-01-17T15:41:52.141Z,64.25
2023-01-17T15:44:23.713Z,64.38
2023-01-17T15:46:50.499Z,64.99
2023-01-17T15:49:22.405Z,64.67
2023-01-17T15:51:53.304Z,64.90
2023-01-17T15:54:34.574Z,64.47
2023-01-17T15:57:05.346Z,64.67
2023-01-17T15:59:43.486Z,64.96
2023-01-17T16:02:32.805Z,64.31
2023-01-17T16:05:01.415Z,64.48
2023-01-17T16:07:35.611Z,64.00
2023-01-17T16:10:08.063Z,64.60
2023-01-17T16:12:34.750Z,65.03
2023-01-17T16:15:12.477Z,65.39
2023-01-17T16:17:42.271Z,65.29
2023-01-17T16:20:15.762Z,65.09
2023-01-17T16:22:43.820Z,65.44
2023-01-17T16:25:21.812Z,64.76
2023-01-17T16:27:49.447Z,65.49
2023-01-17T16:30:18.543Z,65.44
2023-01-17T16:32:49.565Z,65.51
2023-01-17T16:35:21.173Z,65.08
2023-01-17T16:37:55.903Z,64.33
2023-01-17T16:40:25.292Z,64.61
2023-01-17T16:42:52.078Z,65.03
2023-01-17T16:45:19.023Z,64.90
2023-01-17T16:47:47.328Z,65.40
2023-01-17T16:50:16.380Z,65.13
2023-01-17T16:52:43.122Z,65.44
2023-01-17T16:55:15.495Z,65.43
2023-01-17T16:57:42.511Z,65.66
2023-01-17T17:00:11.951Z,65.94
2023-01-17T17:02:39.469Z,65.88
2023-01-17T17:05:07.481Z,65.78
2023-01-17T17:07:36.677Z,66.06
2023-01-17T17:10:03.728Z,66.27
2023-01-17T17:12:31.942Z,66.11
2023-01-17T17:14:58.686Z,66.16
2023-01-17T17:17:25.446Z,66.28
2023-01-17T17:19:52.140Z,66.66
2023-01-17T17:22:18.823Z,66.45
2023-01-17T17:24:45.499Z,66.56
2023-01-17T17:27:12.349Z,66.64
2023-01-17T17:29:41.552Z,66.66
2023-01-17T17:32:11.432Z,66.64
2023-01-17T17:34:38.589Z,66.65
2023-01-17T17:37:05.269Z,66.96
2023-01-17T17:39:32.141Z,66.96
2023-01-17T17:41:58.886Z,66.73
2023-01-17T17:44:25.668Z,67.11
2023-01-17T17:46:52.373Z,67.19
2023-01-17T17:49:20.374Z,67.31
2023-01-17T17:51:47.905Z,67.16
2023-01-17T17:54:15.510Z,67.41
2023-01-17T17:56:46.439Z,67.91
2023-01-17T17:59:14.831Z,67.58
2023-01-17T18:01:41.721Z,67.26
2023-01-17T18:04:09.040Z,67.11
2023-01-17T18:06:36.267Z,67.49
2023-01-17T18:09:03.346Z,67.25
2023-01-17T18:11:30.568Z,67.29
2023-01-17T18:14:00.071Z,67.57
2023-01-17T18:16:32.663Z,67.30
2023-01-17T18:18:59.615Z,67.23
2023-01-17T18:21:29.350Z,66.83
2023-01-17T18:23:58.789Z,67.05
2023-01-17T18:26:30.879Z,66.95
2023-01-17T18:28:58.884Z,66.97
2023-01-17T18:31:27.395Z,66.67
2023-01-17T18:33:55.227Z,66.50
2023-01-17T18:36:25.848Z,66.31
2023-01-17T18:38:52.642Z,66.02
2023-01-17T18:41:25.770Z,66.32
2023-01-17T18:43:54.162Z,66.44
2023-01-17T18:46:21.115Z,66.06
2023-01-17T18:48:48.028Z,66.49
2023-01-17T18:51:17.063Z,65.98
2023-01-17T18:53:44.668Z,66.01
2023-01-17T18:56:16.802Z,65.82
2023-01-17T18:58:45.191Z,66.38
2023-01-17T19:01:17.271Z,66.18
2023-01-17T19:03:46.375Z,66.04
2023-01-17T19:06:17.140Z,66.10
2023-01-17T19:08:43.929Z,65.59
2023-01-17T19:11:11.198Z,65.97
2023-01-17T19:13:38.723Z,65.91
2023-01-17T19:16:07.850Z,66.44
2023-01-17T19:18:35.205Z,66.45
2023-01-17T19:21:12.889Z,68.39
2023-01-17T19:23:39.855Z,68.26
2023-01-17T19:26:08.316Z,69.61
2023-01-17T19:28:42.890Z,69.57
2023-01-17T19:31:13.121Z,68.74
2023-01-17T19:33:42.128Z,69.93
2023-01-17T19:36:11.817Z,68.48
2023-01-17T19:38:38.598Z,67.92
2023-01-17T19:41:10.153Z,67.91
2023-01-17T19:43:37.303Z,66.91
2023-01-17T19:46:04.359Z,66.27
2023-01-17T19:48:31.512Z,66.29
2023-01-17T19:51:07.039Z,66.06
2023-01-17T19:53:35.859Z,66.36
2023-01-17T19:56:14.501Z,66.20
2023-01-17T19:58:42.016Z,66.73
2023-01-17T20:01:11.281Z,66.27
2023-01-17T20:03:38.594Z,66.51
2023-01-17T20:06:06.384Z,66.74
2023-01-17T20:08:34.206Z,67.20
2023-01-17T20:11:15.983Z,65.58
2023-01-17T20:13:42.649Z,65.94
2023-01-17T20:16:11.756Z,65.69
2023-01-17T20:18:38.649Z,66.18
2023-01-17T20:21:07.459Z,66.33
2023-01-17T20:23:38.817Z,65.92
2023-01-17T20:26:06.093Z,66.41
2023-01-17T20:28:34.255Z,67.45
2023-01-17T20:31:05.856Z,68.97
2023-01-17T20:33:33.593Z,67.97
2023-01-17T20:36:10.411Z,68.63
2023-01-17T20:38:44.732Z,68.82
2023-01-17T20:41:13.829Z,68.82
2023-01-17T20:43:42.129Z,69.91
2023-01-17T20:46:09.816Z,70.27
2023-01-17T20:48:36.698Z,70.39
2023-01-17T20:51:10.375Z,70.84
2023-01-17T20:53:38.884Z,70.57
2023-01-17T20:56:05.968Z,69.36
2023-01-17T20:58:33.963Z,69.40
2023-01-17T21:01:01.309Z,70.14
2023-01-17T21:03:33.339Z,70.96
2023-01-17T21:06:05.132Z,72.71
2023-01-17T21:08:33.592Z,73.70
2023-01-17T21:11:00.753Z,74.27
2023-01-17T21:13:27.665Z,74.73
2023-01-17T21:15:54.420Z,75.71
2023-01-17T21:18:22.645Z,75.86
2023-01-17T21:20:49.490Z,75.85
2023-01-17T21:23:19.053Z,76.35
2023-01-17T21:25:57.802Z,76.79
2023-01-17T21:28:27.259Z,76.41
2023-01-17T21:30:54.380Z,76.44
2023-01-17T21:33:22.443Z,76.83
2023-01-17T21:35:49.142Z,77.20
2023-01-17T21:38:15.919Z,78.24
2023-01-17T21:40:43.348Z,78.79
2023-01-17T21:43:10.598Z,78.54
2023-01-17T21:45:38.409Z,78.18
2023-01-17T21:48:12.219Z,79.95
2023-01-17T21:50:39.208Z,79.34
2023-01-17T21:53:06.439Z,80.13
2023-01-17T21:55:51.701Z,79.86
2023-01-17T21:58:36.658Z,80.47
2023-01-17T22:01:18.012Z,80.48
2023-01-17T22:03:48.878Z,81.16
2023-01-17T22:06:15.645Z,80.32
2023-01-17T22:08:42.551Z,80.61
2023-01-17T22:11:11.978Z,81.40
2023-01-17T22:13:40.156Z,81.37
2023-01-17T22:16:10.257Z,81.71
2023-01-17T22:18:38.988Z,82.01
2023-01-17T22:21:14.553Z,82.92
2023-01-17T22:23:55.382Z,82.27
2023-01-17T22:26:24.374Z,81.70
2023-01-17T22:28:51.452Z,81.53
2023-01-17T22:31:23.338Z,82.98
2023-01-17T22:33:58.026Z,82.97
2023-01-17T22:36:25.126Z,82.39
2023-01-17T22:38:51.920Z,82.97
2023-01-17T22:41:21.555Z,82.66
2023-01-17T22:43:50.067Z,82.64
2023-01-17T22:46:20.367Z,84.52
2023-01-17T22:48:47.086Z,83.96
2023-01-17T22:51:15.722Z,83.06
2023-01-17T22:53:51.166Z,84.76
2023-01-17T22:56:23.923Z,84.87
2023-01-17T22:58:50.900Z,84.23
2023-01-17T23:01:25.743Z,84.90
2023-01-17T23:03:57.938Z,85.81
2023-01-17T23:06:30.306Z,85.38
2023-01-17T23:08:59.582Z,84.18
2023-01-17T23:11:44.964Z,85.78
2023-01-17T23:14:15.714Z,86.02
2023-01-17T23:17:07.308Z,86.84
2023-01-17T23:19:36.264Z,86.35
2023-01-17T23:24:54.105Z,86.31
2023-01-17T23:27:42.715Z,86.42
2023-01-17T23:30:15.167Z,87.07
2023-01-17T23:32:47.680Z,87.61
2023-01-17T23:35:15.550Z,86.62
2023-01-17T23:38:01.698Z,86.25
2023-01-17T23:40:30.231Z,87.69
2023-01-17T23:43:15.579Z,87.31
2023-01-17T23:45:42.430Z,86.21
2023-01-17T23:48:09.694Z,86.76
2023-01-17T23:50:38.227Z,86.94
2023-01-17T23:53:06.959Z,87.45
2023-01-17T23:55:38.834Z,86.71
2023-01-17T23:58:07.528Z,87.20
